EFHA

Details ICAO EFHA (KEV)
Name Halli
Region Finland
Timezone Europe/Helsinki (UTC+2.0)
Plans Departing 3
Arriving 8
Stats Elevation 479 ft / 146 m (AMSL)
Location 61.856049° 24.786613°
Runways 1
Magnetic Variation 9.370° E
Sunrise 2017-12-16 07:40:04 UTC / 2017-12-16 09:40:04 Local
Sunset 2017-12-16 12:55:37 UTC / 2017-12-16 14:55:37 Local
Advertisement - Login to hide

Runways

ID Width Length Bearing (true) Bearing (mag) Surface Threshold Offset Overrun Length
08 197 ft / 60 m 8,505 ft / 2,592 m 86.08° 76.71° Asphalt 0 ft / 0 m 830 ft / 253 m
26 197 ft / 60 m 8,505 ft / 2,592 m 266.12° 256.75° Asphalt 0 ft / 0 m 675 ft / 206 m

Approach Navaids

Runway Type Ident Frequency Range Bearing (true) Bearing (mag) Slope Elevation
26 Localiser HA 109.90 MHz 18 nm / 33 km 266.08° 256.71° - 479 ft / 146 m (AMSL)
26 Glidescope HA 109.90 MHz 10 nm / 19 km 266.10° 256.73° 3.00° 473 ft / 144 m (AMSL)

Map

Weather


0- 5 10 15 20 25 30 35+ Temperature / ° C

Clouds and Precipitation
Forecast for 2017-12-16 06:00 UTC. Updated 34 minutes ago

Ground ~20,000 ft ~40,000 ft Winds

METAR

EFHA 160120Z AUTO 11006KT 5000 -SN OVC005 00/00 Q0994

TAF

Not found

Frequencies

Tower 119.70 MHz TWR
Approach 124.55 MHz APP
Tower 128.90 MHz TWR
Approach 119.70 MHz APP
Warning: Do not use this data for real-world aviation or navigation. No guarantee of current accuracy is given.